sensor_id;sensor_type;location;lat;lon;timestamp;P1;durP1;ratioP1;P2;durP2;ratioP2
70045;SDS011;57385;41.832;23.494;2022-12-07T00:00:19;50.47;;;27.38;;
70045;SDS011;57385;41.832;23.494;2022-12-07T00:01:41;53.33;;;26.88;;
70045;SDS011;57385;41.832;23.494;2022-12-07T00:03:03;55.67;;;27.88;;
70045;SDS011;57385;41.832;23.494;2022-12-07T00:04:25;45.65;;;25.27;;
70045;SDS011;57385;41.832;23.494;2022-12-07T00:05:46;47.35;;;25.73;;
70045;SDS011;57385;41.832;23.494;2022-12-07T00:07:07;53.38;;;28.13;;
70045;SDS011;57385;41.832;23.494;2022-12-07T00:08:28;47.33;;;25.20;;
70045;SDS011;57385;41.832;23.494;2022-12-07T00:09:50;49.10;;;23.60;;
70045;SDS011;57385;41.832;23.494;2022-12-07T00:11:13;46.95;;;25.20;;
70045;SDS011;57385;41.832;23.494;2022-12-07T00:12:38;45.17;;;24.55;;
70045;SDS011;57385;41.832;23.494;2022-12-07T00:14:01;44.78;;;24.80;;
70045;SDS011;57385;41.832;23.494;2022-12-07T00:15:23;42.95;;;24.13;;
70045;SDS011;57385;41.832;23.494;2022-12-07T00:16:45;40.53;;;22.90;;
70045;SDS011;57385;41.832;23.494;2022-12-07T00:18:06;42.30;;;21.13;;
70045;SDS011;57385;41.832;23.494;2022-12-07T00:19:27;32.38;;;19.33;;
70045;SDS011;57385;41.832;23.494;2022-12-07T00:20:48;31.23;;;16.80;;
70045;SDS011;57385;41.832;23.494;2022-12-07T00:22:10;41.42;;;19.10;;
70045;SDS011;57385;41.832;23.494;2022-12-07T00:23:31;14.95;;;9.90;;
70045;SDS011;57385;41.832;23.494;2022-12-07T00:24:53;18.35;;;10.00;;
70045;SDS011;57385;41.832;23.494;2022-12-07T00:26:19;20.08;;;11.82;;
70045;SDS011;57385;41.832;23.494;2022-12-07T00:27:59;17.00;;;10.10;;
70045;SDS011;57385;41.832;23.494;2022-12-07T00:29:21;13.35;;;9.32;;
70045;SDS011;57385;41.832;23.494;2022-12-07T00:30:44;15.32;;;8.80;;
70045;SDS011;57385;41.832;23.494;2022-12-07T00:32:05;12.57;;;8.18;;
70045;SDS011;57385;41.832;23.494;2022-12-07T00:33:27;14.13;;;8.93;;
70045;SDS011;57385;41.832;23.494;2022-12-07T00:34:49;19.90;;;10.40;;
70045;SDS011;57385;41.832;23.494;2022-12-07T00:36:11;29.92;;;10.15;;
70045;SDS011;57385;41.832;23.494;2022-12-07T00:37:34;21.08;;;11.23;;
70045;SDS011;57385;41.832;23.494;2022-12-07T00:38:57;18.60;;;11.13;;
70045;SDS011;57385;41.832;23.494;2022-12-07T00:40:19;19.55;;;10.77;;
70045;SDS011;57385;41.832;23.494;2022-12-07T00:41:40;18.90;;;9.35;;
70045;SDS011;57385;41.832;23.494;2022-12-07T00:43:01;14.60;;;8.10;;
70045;SDS011;57385;41.832;23.494;2022-12-07T00:44:22;14.55;;;8.95;;
70045;SDS011;57385;41.832;23.494;2022-12-07T00:45:43;16.33;;;9.40;;
70045;SDS011;57385;41.832;23.494;2022-12-07T00:47:04;15.95;;;8.95;;
70045;SDS011;57385;41.832;23.494;2022-12-07T00:48:26;15.52;;;10.10;;
70045;SDS011;57385;41.832;23.494;2022-12-07T00:49:47;36.25;;;24.85;;
70045;SDS011;57385;41.832;23.494;2022-12-07T00:51:09;30.00;;;18.52;;
70045;SDS011;57385;41.832;23.494;2022-12-07T00:52:32;22.15;;;12.43;;
70045;SDS011;57385;41.832;23.494;2022-12-07T00:53:53;17.15;;;9.65;;
70045;SDS011;57385;41.832;23.494;2022-12-07T00:55:14;20.60;;;10.45;;
70045;SDS011;57385;41.832;23.494;2022-12-07T00:56:36;32.78;;;18.48;;
70045;SDS011;57385;41.832;23.494;2022-12-07T00:57:57;31.02;;;15.32;;
70045;SDS011;57385;41.832;23.494;2022-12-07T00:59:18;51.13;;;23.80;;
70045;SDS011;57385;41.832;23.494;2022-12-07T01:00:40;51.75;;;23.38;;
70045;SDS011;57385;41.832;23.494;2022-12-07T01:02:03;48.20;;;24.90;;
70045;SDS011;57385;41.832;23.494;2022-12-07T01:03:24;49.58;;;24.65;;
70045;SDS011;57385;41.832;23.494;2022-12-07T01:04:45;25.20;;;14.07;;
70045;SDS011;57385;41.832;23.494;2022-12-07T01:06:06;31.98;;;15.77;;
70045;SDS011;57385;41.832;23.494;2022-12-07T01:07:27;23.55;;;12.93;;
70045;SDS011;57385;41.832;23.494;2022-12-07T01:08:49;22.38;;;12.50;;
70045;SDS011;57385;41.832;23.494;2022-12-07T01:10:10;19.95;;;11.48;;
70045;SDS011;57385;41.832;23.494;2022-12-07T01:11:31;22.17;;;11.52;;
70045;SDS011;57385;41.832;23.494;2022-12-07T01:12:53;25.48;;;12.52;;
70045;SDS011;57385;41.832;23.494;2022-12-07T01:14:14;26.52;;;13.90;;
70045;SDS011;57385;41.832;23.494;2022-12-07T01:15:38;26.85;;;14.80;;
70045;SDS011;57385;41.832;23.494;2022-12-07T01:17:00;36.70;;;20.52;;
70045;SDS011;57385;41.832;23.494;2022-12-07T01:18:22;37.67;;;22.77;;
70045;SDS011;57385;41.832;23.494;2022-12-07T01:19:46;36.20;;;21.27;;
70045;SDS011;57385;41.832;23.494;2022-12-07T01:21:11;28.95;;;18.88;;
70045;SDS011;57385;41.832;23.494;2022-12-07T01:22:38;21.70;;;14.07;;
70045;SDS011;57385;41.832;23.494;2022-12-07T01:24:06;22.92;;;13.38;;
70045;SDS011;57385;41.832;23.494;2022-12-07T01:25:30;32.92;;;16.23;;
70045;SDS011;57385;41.832;23.494;2022-12-07T01:26:51;27.23;;;12.90;;
70045;SDS011;57385;41.832;23.494;2022-12-07T01:28:12;18.17;;;12.18;;
70045;SDS011;57385;41.832;23.494;2022-12-07T01:29:33;13.65;;;8.88;;
70045;SDS011;57385;41.832;23.494;2022-12-07T01:30:58;17.67;;;10.55;;
70045;SDS011;57385;41.832;23.494;2022-12-07T01:32:21;22.60;;;11.27;;
70045;SDS011;57385;41.832;23.494;2022-12-07T01:33:43;20.35;;;10.18;;
70045;SDS011;57385;41.832;23.494;2022-12-07T01:35:06;12.73;;;8.13;;
70045;SDS011;57385;41.832;23.494;2022-12-07T01:36:29;17.20;;;10.20;;
70045;SDS011;57385;41.832;23.494;2022-12-07T01:37:52;17.33;;;9.95;;
70045;SDS011;57385;41.832;23.494;2022-12-07T01:39:13;23.35;;;11.93;;
70045;SDS011;57385;41.832;23.494;2022-12-07T01:40:34;35.53;;;18.90;;
70045;SDS011;57385;41.832;23.494;2022-12-07T01:41:56;28.35;;;15.55;;
70045;SDS011;57385;41.832;23.494;2022-12-07T01:43:17;20.98;;;13.23;;
70045;SDS011;57385;41.832;23.494;2022-12-07T01:46:37;19.35;;;12.30;;
70045;SDS011;57385;41.832;23.494;2022-12-07T01:47:59;21.33;;;12.40;;
70045;SDS011;57385;41.832;23.494;2022-12-07T01:50:46;32.90;;;18.48;;
70045;SDS011;57385;41.832;23.494;2022-12-07T01:52:14;35.58;;;19.70;;
70045;SDS011;57385;41.832;23.494;2022-12-07T01:53:40;30.25;;;18.15;;
70045;SDS011;57385;41.832;23.494;2022-12-07T01:55:06;34.00;;;19.45;;
70045;SDS011;57385;41.832;23.494;2022-12-07T01:56:30;41.65;;;23.55;;
70045;SDS011;57385;41.832;23.494;2022-12-07T01:57:52;43.67;;;25.45;;
70045;SDS011;57385;41.832;23.494;2022-12-07T01:59:15;50.28;;;26.60;;
70045;SDS011;57385;41.832;23.494;2022-12-07T02:00:38;40.00;;;23.13;;
70045;SDS011;57385;41.832;23.494;2022-12-07T02:01:59;46.50;;;24.17;;
70045;SDS011;57385;41.832;23.494;2022-12-07T02:03:30;46.75;;;25.10;;
70045;SDS011;57385;41.832;23.494;2022-12-07T02:04:56;50.13;;;26.13;;
70045;SDS011;57385;41.832;23.494;2022-12-07T02:06:21;47.20;;;25.60;;
70045;SDS011;57385;41.832;23.494;2022-12-07T02:07:44;46.60;;;25.58;;
70045;SDS011;57385;41.832;23.494;2022-12-07T02:09:07;46.70;;;23.15;;
70045;SDS011;57385;41.832;23.494;2022-12-07T02:10:29;42.13;;;24.15;;
70045;SDS011;57385;41.832;23.494;2022-12-07T02:11:51;39.28;;;20.73;;
70045;SDS011;57385;41.832;23.494;2022-12-07T02:13:19;31.92;;;17.60;;
70045;SDS011;57385;41.832;23.494;2022-12-07T02:14:44;27.70;;;16.92;;
70045;SDS011;57385;41.832;23.494;2022-12-07T02:28:07;21.70;;;10.57;;
70045;SDS011;57385;41.832;23.494;2022-12-07T02:29:47;15.48;;;8.95;;
70045;SDS011;57385;41.832;23.494;2022-12-07T02:31:22;18.20;;;7.90;;
70045;SDS011;57385;41.832;23.494;2022-12-07T02:34:34;16.60;;;10.40;;
70045;SDS011;57385;41.832;23.494;2022-12-07T02:36:17;19.55;;;12.48;;
70045;SDS011;57385;41.832;23.494;2022-12-07T02:39:49;21.10;;;13.43;;
70045;SDS011;57385;41.832;23.494;2022-12-07T02:43:07;26.40;;;16.13;;
70045;SDS011;57385;41.832;23.494;2022-12-07T02:44:34;26.20;;;16.58;;
70045;SDS011;57385;41.832;23.494;2022-12-07T02:46:04;25.27;;;16.65;;
70045;SDS011;57385;41.832;23.494;2022-12-07T02:47:30;19.52;;;14.18;;
70045;SDS011;57385;41.832;23.494;2022-12-07T02:48:54;23.67;;;15.15;;
70045;SDS011;57385;41.832;23.494;2022-12-07T02:50:17;21.65;;;15.48;;
70045;SDS011;57385;41.832;23.494;2022-12-07T02:51:41;22.70;;;14.55;;
70045;SDS011;57385;41.832;23.494;2022-12-07T02:53:04;21.25;;;13.80;;
70045;SDS011;57385;41.832;23.494;2022-12-07T02:54:25;20.73;;;13.05;;
70045;SDS011;57385;41.832;23.494;2022-12-07T02:55:47;18.40;;;12.93;;
70045;SDS011;57385;41.832;23.494;2022-12-07T02:57:21;19.15;;;12.27;;
70045;SDS011;57385;41.832;23.494;2022-12-07T03:00:34;13.63;;;9.68;;
70045;SDS011;57385;41.832;23.494;2022-12-07T03:03:56;22.33;;;13.55;;
70045;SDS011;57385;41.832;23.494;2022-12-07T03:09:06;17.55;;;10.45;;
70045;SDS011;57385;41.832;23.494;2022-12-07T03:12:16;23.63;;;12.73;;
70045;SDS011;57385;41.832;23.494;2022-12-07T03:15:54;19.15;;;9.30;;
70045;SDS011;57385;41.832;23.494;2022-12-07T03:17:27;15.25;;;9.80;;
70045;SDS011;57385;41.832;23.494;2022-12-07T03:19:01;16.30;;;10.90;;
70045;SDS011;57385;41.832;23.494;2022-12-07T03:20:27;22.70;;;11.80;;
70045;SDS011;57385;41.832;23.494;2022-12-07T03:21:55;20.95;;;11.10;;
70045;SDS011;57385;41.832;23.494;2022-12-07T03:23:18;18.15;;;10.85;;
70045;SDS011;57385;41.832;23.494;2022-12-07T03:24:46;20.52;;;10.80;;
70045;SDS011;57385;41.832;23.494;2022-12-07T03:26:12;17.38;;;11.23;;
70045;SDS011;57385;41.832;23.494;2022-12-07T03:27:42;19.52;;;12.43;;
70045;SDS011;57385;41.832;23.494;2022-12-07T03:29:27;23.77;;;13.00;;
70045;SDS011;57385;41.832;23.494;2022-12-07T03:31:14;18.48;;;11.63;;
70045;SDS011;57385;41.832;23.494;2022-12-07T03:32:43;29.35;;;15.80;;
70045;SDS011;57385;41.832;23.494;2022-12-07T03:35:50;25.73;;;14.15;;
70045;SDS011;57385;41.832;23.494;2022-12-07T03:37:20;18.10;;;12.68;;
70045;SDS011;57385;41.832;23.494;2022-12-07T03:39:03;18.15;;;11.18;;
70045;SDS011;57385;41.832;23.494;2022-12-07T03:40:50;20.27;;;11.30;;
70045;SDS011;57385;41.832;23.494;2022-12-07T03:42:14;16.73;;;10.05;;
70045;SDS011;57385;41.832;23.494;2022-12-07T03:43:35;20.30;;;10.23;;
70045;SDS011;57385;41.832;23.494;2022-12-07T03:44:57;23.25;;;13.15;;
70045;SDS011;57385;41.832;23.494;2022-12-07T03:49:59;19.77;;;10.30;;
70045;SDS011;57385;41.832;23.494;2022-12-07T03:51:25;16.02;;;9.73;;
70045;SDS011;57385;41.832;23.494;2022-12-07T03:56:43;348.38;;;143.70;;
70045;SDS011;57385;41.832;23.494;2022-12-07T03:58:07;188.50;;;79.80;;
70045;SDS011;57385;41.832;23.494;2022-12-07T03:59:32;75.82;;;35.50;;
70045;SDS011;57385;41.832;23.494;2022-12-07T04:00:54;33.22;;;17.05;;
70045;SDS011;57385;41.832;23.494;2022-12-07T04:02:15;28.90;;;15.95;;
70045;SDS011;57385;41.832;23.494;2022-12-07T04:03:37;25.92;;;15.18;;
70045;SDS011;57385;41.832;23.494;2022-12-07T04:04:58;37.38;;;18.58;;
70045;SDS011;57385;41.832;23.494;2022-12-07T04:06:19;34.38;;;18.27;;
70045;SDS011;57385;41.832;23.494;2022-12-07T04:07:40;24.13;;;13.73;;
70045;SDS011;57385;41.832;23.494;2022-12-07T04:09:02;19.92;;;10.82;;
70045;SDS011;57385;41.832;23.494;2022-12-07T04:10:23;13.30;;;8.27;;
70045;SDS011;57385;41.832;23.494;2022-12-07T04:11:44;17.73;;;9.10;;
70045;SDS011;57385;41.832;23.494;2022-12-07T04:13:06;15.52;;;9.20;;
70045;SDS011;57385;41.832;23.494;2022-12-07T04:14:27;25.70;;;15.43;;
70045;SDS011;57385;41.832;23.494;2022-12-07T04:15:48;26.20;;;16.67;;
70045;SDS011;57385;41.832;23.494;2022-12-07T04:17:09;23.77;;;14.60;;
70045;SDS011;57385;41.832;23.494;2022-12-07T04:18:31;23.65;;;14.60;;
70045;SDS011;57385;41.832;23.494;2022-12-07T04:19:52;36.80;;;19.98;;
70045;SDS011;57385;41.832;23.494;2022-12-07T04:21:13;29.02;;;15.90;;
70045;SDS011;57385;41.832;23.494;2022-12-07T04:22:34;23.55;;;14.18;;
70045;SDS011;57385;41.832;23.494;2022-12-07T04:23:55;19.80;;;11.88;;
70045;SDS011;57385;41.832;23.494;2022-12-07T04:25:16;29.55;;;15.48;;
70045;SDS011;57385;41.832;23.494;2022-12-07T04:26:38;42.55;;;24.42;;
70045;SDS011;57385;41.832;23.494;2022-12-07T04:27:59;56.72;;;30.77;;
70045;SDS011;57385;41.832;23.494;2022-12-07T04:29:20;81.60;;;43.80;;
70045;SDS011;57385;41.832;23.494;2022-12-07T04:30:41;103.35;;;56.20;;
70045;SDS011;57385;41.832;23.494;2022-12-07T04:32:02;98.20;;;53.40;;
70045;SDS011;57385;41.832;23.494;2022-12-07T04:33:24;94.75;;;51.10;;
70045;SDS011;57385;41.832;23.494;2022-12-07T04:34:45;86.18;;;45.42;;
70045;SDS011;57385;41.832;23.494;2022-12-07T04:36:08;102.88;;;55.80;;
70045;SDS011;57385;41.832;23.494;2022-12-07T04:37:30;73.68;;;39.67;;
70045;SDS011;57385;41.832;23.494;2022-12-07T04:38:52;54.80;;;28.17;;
70045;SDS011;57385;41.832;23.494;2022-12-07T04:40:15;48.17;;;27.60;;
70045;SDS011;57385;41.832;23.494;2022-12-07T04:41:36;46.20;;;27.17;;
70045;SDS011;57385;41.832;23.494;2022-12-07T04:42:57;41.75;;;21.02;;
70045;SDS011;57385;41.832;23.494;2022-12-07T04:44:19;27.73;;;18.38;;
70045;SDS011;57385;41.832;23.494;2022-12-07T04:45:45;27.88;;;16.42;;
70045;SDS011;57385;41.832;23.494;2022-12-07T04:47:06;32.20;;;19.42;;
70045;SDS011;57385;41.832;23.494;2022-12-07T04:48:28;42.88;;;23.73;;
70045;SDS011;57385;41.832;23.494;2022-12-07T04:49:49;54.45;;;31.45;;
70045;SDS011;57385;41.832;23.494;2022-12-07T04:51:10;67.18;;;35.83;;
70045;SDS011;57385;41.832;23.494;2022-12-07T04:52:31;55.42;;;34.00;;
70045;SDS011;57385;41.832;23.494;2022-12-07T04:53:53;54.78;;;33.85;;
70045;SDS011;57385;41.832;23.494;2022-12-07T04:55:14;52.10;;;32.88;;
70045;SDS011;57385;41.832;23.494;2022-12-07T04:56:35;60.72;;;36.53;;
70045;SDS011;57385;41.832;23.494;2022-12-07T04:57:56;59.72;;;38.22;;
70045;SDS011;57385;41.832;23.494;2022-12-07T04:59:17;58.85;;;40.05;;
70045;SDS011;57385;41.832;23.494;2022-12-07T05:00:39;61.25;;;42.85;;
70045;SDS011;57385;41.832;23.494;2022-12-07T05:02:00;58.25;;;39.40;;
70045;SDS011;57385;41.832;23.494;2022-12-07T05:03:22;58.65;;;39.55;;
70045;SDS011;57385;41.832;23.494;2022-12-07T05:04:43;49.33;;;32.92;;
70045;SDS011;57385;41.832;23.494;2022-12-07T05:06:04;38.20;;;26.67;;
70045;SDS011;57385;41.832;23.494;2022-12-07T05:07:33;32.40;;;22.88;;
70045;SDS011;57385;41.832;23.494;2022-12-07T05:08:54;30.23;;;22.80;;
70045;SDS011;57385;41.832;23.494;2022-12-07T05:10:15;34.60;;;23.33;;
70045;SDS011;57385;41.832;23.494;2022-12-07T05:11:37;39.47;;;24.88;;
70045;SDS011;57385;41.832;23.494;2022-12-07T05:13:01;45.17;;;32.70;;
70045;SDS011;57385;41.832;23.494;2022-12-07T05:14:22;54.10;;;37.10;;
70045;SDS011;57385;41.832;23.494;2022-12-07T05:15:43;48.75;;;32.20;;
70045;SDS011;57385;41.832;23.494;2022-12-07T05:17:04;55.05;;;37.85;;
70045;SDS011;57385;41.832;23.494;2022-12-07T05:18:25;46.00;;;32.00;;
70045;SDS011;57385;41.832;23.494;2022-12-07T05:19:47;72.45;;;49.33;;
70045;SDS011;57385;41.832;23.494;2022-12-07T05:21:08;64.35;;;45.58;;
70045;SDS011;57385;41.832;23.494;2022-12-07T05:22:29;56.80;;;41.13;;
70045;SDS011;57385;41.832;23.494;2022-12-07T05:23:50;40.30;;;32.17;;
70045;SDS011;57385;41.832;23.494;2022-12-07T05:25:12;45.50;;;36.78;;
70045;SDS011;57385;41.832;23.494;2022-12-07T05:26:33;39.75;;;30.20;;
70045;SDS011;57385;41.832;23.494;2022-12-07T05:27:55;41.10;;;28.65;;
70045;SDS011;57385;41.832;23.494;2022-12-07T05:29:16;32.00;;;22.70;;
70045;SDS011;57385;41.832;23.494;2022-12-07T05:30:38;34.22;;;26.17;;
70045;SDS011;57385;41.832;23.494;2022-12-07T05:31:59;35.95;;;23.48;;
70045;SDS011;57385;41.832;23.494;2022-12-07T05:33:20;25.13;;;19.10;;
70045;SDS011;57385;41.832;23.494;2022-12-07T05:34:41;28.33;;;19.70;;
70045;SDS011;57385;41.832;23.494;2022-12-07T05:36:02;32.70;;;22.50;;
70045;SDS011;57385;41.832;23.494;2022-12-07T05:37:26;47.70;;;31.05;;
70045;SDS011;57385;41.832;23.494;2022-12-07T05:38:47;55.90;;;32.35;;
70045;SDS011;57385;41.832;23.494;2022-12-07T05:40:08;46.80;;;28.75;;
70045;SDS011;57385;41.832;23.494;2022-12-07T05:41:30;50.85;;;28.92;;
70045;SDS011;57385;41.832;23.494;2022-12-07T05:43:10;40.55;;;26.30;;
70045;SDS011;57385;41.832;23.494;2022-12-07T05:44:31;44.83;;;32.40;;
70045;SDS011;57385;41.832;23.494;2022-12-07T05:45:52;43.25;;;32.50;;
70045;SDS011;57385;41.832;23.494;2022-12-07T05:47:14;37.97;;;28.60;;
70045;SDS011;57385;41.832;23.494;2022-12-07T05:48:35;30.88;;;22.40;;
70045;SDS011;57385;41.832;23.494;2022-12-07T05:49:57;35.95;;;25.92;;
70045;SDS011;57385;41.832;23.494;2022-12-07T05:51:18;40.47;;;27.17;;
70045;SDS011;57385;41.832;23.494;2022-12-07T05:52:40;37.03;;;23.55;;
70045;SDS011;57385;41.832;23.494;2022-12-07T05:54:01;39.97;;;22.20;;
70045;SDS011;57385;41.832;23.494;2022-12-07T05:55:22;32.85;;;22.88;;
70045;SDS011;57385;41.832;23.494;2022-12-07T05:56:43;41.00;;;22.42;;
70045;SDS011;57385;41.832;23.494;2022-12-07T05:58:04;39.65;;;24.17;;
70045;SDS011;57385;41.832;23.494;2022-12-07T05:59:44;48.42;;;27.42;;
70045;SDS011;57385;41.832;23.494;2022-12-07T06:01:05;51.28;;;26.95;;
70045;SDS011;57385;41.832;23.494;2022-12-07T06:02:26;33.50;;;20.95;;
70045;SDS011;57385;41.832;23.494;2022-12-07T06:03:47;43.60;;;23.13;;
70045;SDS011;57385;41.832;23.494;2022-12-07T06:05:09;43.15;;;23.42;;
70045;SDS011;57385;41.832;23.494;2022-12-07T06:06:30;41.50;;;23.67;;
70045;SDS011;57385;41.832;23.494;2022-12-07T06:07:51;45.05;;;24.77;;
70045;SDS011;57385;41.832;23.494;2022-12-07T06:09:13;42.88;;;25.58;;
70045;SDS011;57385;41.832;23.494;2022-12-07T06:10:34;60.30;;;35.13;;
70045;SDS011;57385;41.832;23.494;2022-12-07T06:11:56;77.13;;;40.95;;
70045;SDS011;57385;41.832;23.494;2022-12-07T06:13:36;90.97;;;51.53;;
70045;SDS011;57385;41.832;23.494;2022-12-07T06:15:05;98.43;;;50.33;;
70045;SDS011;57385;41.832;23.494;2022-12-07T06:16:26;116.70;;;56.67;;
70045;SDS011;57385;41.832;23.494;2022-12-07T06:17:49;87.60;;;44.55;;
70045;SDS011;57385;41.832;23.494;2022-12-07T06:19:10;101.63;;;51.20;;
70045;SDS011;57385;41.832;23.494;2022-12-07T06:20:31;97.07;;;54.78;;
70045;SDS011;57385;41.832;23.494;2022-12-07T06:21:52;97.10;;;52.42;;
70045;SDS011;57385;41.832;23.494;2022-12-07T06:23:14;103.45;;;55.05;;
70045;SDS011;57385;41.832;23.494;2022-12-07T06:24:35;96.30;;;52.50;;
70045;SDS011;57385;41.832;23.494;2022-12-07T06:25:56;96.13;;;54.33;;
70045;SDS011;57385;41.832;23.494;2022-12-07T06:27:18;98.57;;;51.20;;
70045;SDS011;57385;41.832;23.494;2022-12-07T06:28:39;80.53;;;45.45;;
70045;SDS011;57385;41.832;23.494;2022-12-07T06:30:01;88.15;;;49.65;;
70045;SDS011;57385;41.832;23.494;2022-12-07T06:31:27;75.40;;;46.33;;
70045;SDS011;57385;41.832;23.494;2022-12-07T06:32:48;80.95;;;46.17;;
70045;SDS011;57385;41.832;23.494;2022-12-07T06:34:11;91.95;;;53.92;;
70045;SDS011;57385;41.832;23.494;2022-12-07T06:35:34;133.50;;;66.45;;
70045;SDS011;57385;41.832;23.494;2022-12-07T06:36:55;141.43;;;78.35;;
70045;SDS011;57385;41.832;23.494;2022-12-07T06:38:16;190.88;;;85.30;;
70045;SDS011;57385;41.832;23.494;2022-12-07T06:39:38;162.20;;;81.75;;
70045;SDS011;57385;41.832;23.494;2022-12-07T06:40:59;117.50;;;69.95;;
70045;SDS011;57385;41.832;23.494;2022-12-07T06:42:20;95.15;;;58.58;;
70045;SDS011;57385;41.832;23.494;2022-12-07T06:43:41;83.82;;;51.13;;
70045;SDS011;57385;41.832;23.494;2022-12-07T06:45:03;83.88;;;49.28;;
70045;SDS011;57385;41.832;23.494;2022-12-07T06:46:24;77.65;;;47.08;;
70045;SDS011;57385;41.832;23.494;2022-12-07T06:47:45;81.50;;;51.00;;
70045;SDS011;57385;41.832;23.494;2022-12-07T06:49:06;77.72;;;47.17;;
70045;SDS011;57385;41.832;23.494;2022-12-07T06:50:28;84.45;;;52.72;;
70045;SDS011;57385;41.832;23.494;2022-12-07T06:51:49;95.50;;;57.83;;
70045;SDS011;57385;41.832;23.494;2022-12-07T06:53:10;93.75;;;55.75;;
70045;SDS011;57385;41.832;23.494;2022-12-07T06:54:31;101.60;;;60.22;;
70045;SDS011;57385;41.832;23.494;2022-12-07T06:55:53;107.60;;;63.88;;
70045;SDS011;57385;41.832;23.494;2022-12-07T06:57:14;106.25;;;62.92;;
70045;SDS011;57385;41.832;23.494;2022-12-07T06:58:36;116.50;;;68.93;;
70045;SDS011;57385;41.832;23.494;2022-12-07T06:59:57;135.18;;;80.85;;
70045;SDS011;57385;41.832;23.494;2022-12-07T07:01:19;151.50;;;86.15;;
70045;SDS011;57385;41.832;23.494;2022-12-07T07:02:40;135.43;;;83.10;;
70045;SDS011;57385;41.832;23.494;2022-12-07T07:04:02;132.27;;;79.95;;
70045;SDS011;57385;41.832;23.494;2022-12-07T07:05:23;111.00;;;70.97;;
70045;SDS011;57385;41.832;23.494;2022-12-07T07:06:45;110.78;;;64.38;;
70045;SDS011;57385;41.832;23.494;2022-12-07T07:08:07;105.45;;;63.50;;
70045;SDS011;57385;41.832;23.494;2022-12-07T07:09:44;92.03;;;56.33;;
70045;SDS011;57385;41.832;23.494;2022-12-07T07:11:05;80.53;;;54.38;;
70045;SDS011;57385;41.832;23.494;2022-12-07T07:12:28;151.13;;;105.50;;
70045;SDS011;57385;41.832;23.494;2022-12-07T07:13:49;132.38;;;84.55;;
70045;SDS011;57385;41.832;23.494;2022-12-07T07:15:10;113.15;;;69.68;;
70045;SDS011;57385;41.832;23.494;2022-12-07T07:16:32;176.02;;;103.22;;
70045;SDS011;57385;41.832;23.494;2022-12-07T07:17:53;110.20;;;69.57;;
70045;SDS011;57385;41.832;23.494;2022-12-07T07:19:14;110.80;;;71.57;;
70045;SDS011;57385;41.832;23.494;2022-12-07T07:20:36;123.47;;;74.70;;
70045;SDS011;57385;41.832;23.494;2022-12-07T07:21:57;120.68;;;76.25;;
70045;SDS011;57385;41.832;23.494;2022-12-07T07:23:19;121.75;;;77.25;;
70045;SDS011;57385;41.832;23.494;2022-12-07T07:24:40;141.05;;;89.15;;
70045;SDS011;57385;41.832;23.494;2022-12-07T07:26:02;158.05;;;101.63;;
70045;SDS011;57385;41.832;23.494;2022-12-07T07:27:23;206.32;;;125.15;;
70045;SDS011;57385;41.832;23.494;2022-12-07T07:28:44;199.95;;;124.50;;
70045;SDS011;57385;41.832;23.494;2022-12-07T07:30:05;233.27;;;140.52;;
70045;SDS011;57385;41.832;23.494;2022-12-07T07:31:27;199.73;;;124.88;;
70045;SDS011;57385;41.832;23.494;2022-12-07T07:32:48;146.57;;;95.70;;
70045;SDS011;57385;41.832;23.494;2022-12-07T07:34:10;115.55;;;80.82;;
70045;SDS011;57385;41.832;23.494;2022-12-07T07:35:32;113.63;;;73.72;;
70045;SDS011;57385;41.832;23.494;2022-12-07T07:36:54;130.13;;;85.72;;
70045;SDS011;57385;41.832;23.494;2022-12-07T07:38:15;126.63;;;86.07;;
70045;SDS011;57385;41.832;23.494;2022-12-07T07:39:37;125.75;;;86.32;;
70045;SDS011;57385;41.832;23.494;2022-12-07T07:40:58;134.75;;;89.78;;
70045;SDS011;57385;41.832;23.494;2022-12-07T07:42:19;130.32;;;87.95;;
70045;SDS011;57385;41.832;23.494;2022-12-07T07:43:40;115.60;;;74.78;;
70045;SDS011;57385;41.832;23.494;2022-12-07T07:45:01;111.20;;;75.95;;
70045;SDS011;57385;41.832;23.494;2022-12-07T07:46:23;118.93;;;82.00;;
70045;SDS011;57385;41.832;23.494;2022-12-07T07:47:44;121.13;;;80.72;;
70045;SDS011;57385;41.832;23.494;2022-12-07T07:49:05;121.15;;;80.63;;
70045;SDS011;57385;41.832;23.494;2022-12-07T07:50:26;120.95;;;83.30;;
70045;SDS011;57385;41.832;23.494;2022-12-07T07:51:47;117.95;;;75.10;;
70045;SDS011;57385;41.832;23.494;2022-12-07T07:53:08;118.65;;;78.65;;
70045;SDS011;57385;41.832;23.494;2022-12-07T07:54:30;125.80;;;80.10;;
70045;SDS011;57385;41.832;23.494;2022-12-07T07:55:52;124.47;;;80.65;;
70045;SDS011;57385;41.832;23.494;2022-12-07T07:57:13;110.70;;;73.72;;
70045;SDS011;57385;41.832;23.494;2022-12-07T07:58:36;98.38;;;67.15;;
70045;SDS011;57385;41.832;23.494;2022-12-07T08:00:00;102.55;;;68.10;;
70045;SDS011;57385;41.832;23.494;2022-12-07T08:01:31;98.75;;;66.15;;
70045;SDS011;57385;41.832;23.494;2022-12-07T08:02:52;100.72;;;62.70;;
70045;SDS011;57385;41.832;23.494;2022-12-07T08:04:14;124.32;;;83.13;;
70045;SDS011;57385;41.832;23.494;2022-12-07T08:05:36;99.65;;;66.20;;
70045;SDS011;57385;41.832;23.494;2022-12-07T08:06:58;102.43;;;66.82;;
70045;SDS011;57385;41.832;23.494;2022-12-07T08:08:19;109.80;;;65.35;;
70045;SDS011;57385;41.832;23.494;2022-12-07T08:09:40;107.13;;;66.68;;
70045;SDS011;57385;41.832;23.494;2022-12-07T08:11:04;112.35;;;69.43;;
70045;SDS011;57385;41.832;23.494;2022-12-07T08:12:26;107.50;;;67.88;;
70045;SDS011;57385;41.832;23.494;2022-12-07T08:13:47;107.25;;;69.55;;
70045;SDS011;57385;41.832;23.494;2022-12-07T08:15:09;109.43;;;66.95;;
70045;SDS011;57385;41.832;23.494;2022-12-07T08:16:30;99.30;;;65.78;;
70045;SDS011;57385;41.832;23.494;2022-12-07T08:17:51;108.00;;;66.63;;
70045;SDS011;57385;41.832;23.494;2022-12-07T08:19:12;102.15;;;66.40;;
70045;SDS011;57385;41.832;23.494;2022-12-07T08:20:34;115.60;;;75.63;;
70045;SDS011;57385;41.832;23.494;2022-12-07T08:21:56;172.85;;;106.03;;
70045;SDS011;57385;41.832;23.494;2022-12-07T08:23:18;130.88;;;82.78;;
70045;SDS011;57385;41.832;23.494;2022-12-07T08:24:39;124.97;;;80.72;;
70045;SDS011;57385;41.832;23.494;2022-12-07T08:26:04;117.82;;;74.78;;
70045;SDS011;57385;41.832;23.494;2022-12-07T08:27:29;106.57;;;68.35;;
70045;SDS011;57385;41.832;23.494;2022-12-07T08:29:00;114.07;;;72.53;;
70045;SDS011;57385;41.832;23.494;2022-12-07T08:30:23;115.57;;;78.38;;
70045;SDS011;57385;41.832;23.494;2022-12-07T08:31:44;118.30;;;76.65;;
70045;SDS011;57385;41.832;23.494;2022-12-07T08:33:05;111.75;;;74.10;;
70045;SDS011;57385;41.832;23.494;2022-12-07T08:34:28;109.40;;;72.90;;
70045;SDS011;57385;41.832;23.494;2022-12-07T08:35:49;111.30;;;73.78;;
70045;SDS011;57385;41.832;23.494;2022-12-07T08:37:10;114.78;;;74.25;;
70045;SDS011;57385;41.832;23.494;2022-12-07T08:38:32;108.68;;;71.88;;